PWSweather.com
Personal Weather Stations
Station Observations
IHTIMAN1
Neighbourhood 1, IhtimanBG 2050

Neighbourhood 1IhtimanBG 2050

Lat: 42.436852, Lon: 23.817921

Elevation: 2066

Station Type: Oregon Scientific WMR968

http://ihtiman-meteo.com

Latest ConditionsUpdated 10:00:17 AM GMT+02:02 Sunday, Apr 23, 2017
Currently Today's Max Today's Min Today's Average
Temperature 55.9°F13.3°C 55.9°F13.3°C 42.8°F6.0°C 45.4°F7.4°C
Dew Point 31.9°F-0.1°C 33.1°F0.6°C 26.9°F-2.8°C 29.3°F-1.5°C
Winds 7.7 mph NW12.4 kmh NW 10.1 mph NW16.3 kmh NW - 4.8 mph 7.7 kmh
Wind Gusts 12.7 mph20.4 kmh 14.5 mph23.3 kmh - -
Humidity 40% 57% 40% 53%
Pressure 29.91 in1012.9 mb 29.91 in1012.9 mb 29.86 in1011.2 mb -
Hour Temp Dew Point Humidity Winds Wind Gusts Pressure Precip Precip Rate Daily Precip Total
10:00 AM 55.9°F13.3°C 31.9°F-0.1°C 40% 7.7 mph NW12.4 kmh NW 12.7 mph20.4 kmh 29.91 in1012.9 mb - 0.00 in0.0 mm 0.00 in0.0 mm
09:50 AM 55.3°F12.9°C 33.1°F0.6°C 43% 7.2 mph WNW11.6 kmh WNW 12.3 mph19.8 kmh 29.91 in1012.9 mb - 0.00 in0.0 mm 0.00 in0.0 mm
09:40 AM 54.4°F12.4°C 32.9°F0.5°C 44% 9.4 mph NW15.1 kmh NW 10.5 mph16.9 kmh 29.91 in1012.9 mb - 0.00 in0.0 mm 0.00 in0.0 mm
09:30 AM 53.4°F11.9°C 32.6°F0.3°C 45% 5.7 mph NNW9.2 kmh NNW 8.3 mph13.4 kmh 29.91 in1012.9 mb - 0.00 in0.0 mm 0.00 in0.0 mm
09:20 AM 52.7°F11.5°C 32.5°F0.3°C 46% 8.4 mph NNW13.5 kmh NNW 14.5 mph23.3 kmh 29.91 in1012.9 mb - 0.00 in0.0 mm 0.00 in0.0 mm
09:10 AM 51.3°F10.7°C 32.7°F0.4°C 49% 5.4 mph N8.7 kmh N 8.0 mph12.9 kmh 29.91 in1012.9 mb - 0.00 in0.0 mm 0.00 in0.0 mm
09:00 AM 50.7°F10.4°C 32.2°F0.1°C 49% 6.0 mph NNW9.7 kmh NNW 7.6 mph12.2 kmh 29.91 in1012.9 mb - 0.00 in0.0 mm 0.00 in0.0 mm
08:50 AM 50.4°F10.2°C 31.9°F-0.1°C 49% 5.0 mph NNW8.0 kmh NNW 4.9 mph7.9 kmh 29.91 in1012.9 mb - 0.00 in0.0 mm 0.00 in0.0 mm
08:40 AM 50.4°F10.2°C 31.9°F-0.1°C 49% 7.6 mph NW12.2 kmh NW 9.2 mph14.8 kmh 29.91 in1012.9 mb - 0.00 in0.0 mm 0.00 in0.0 mm
08:30 AM 51.9°F11.1°C 32.8°F0.4°C 48% 6.0 mph WNW9.7 kmh WNW 10.9 mph17.5 kmh 29.91 in1012.9 mb - 0.00 in0.0 mm 0.00 in0.0 mm
08:20 AM 50.8°F10.4°C 32.3°F0.2°C 49% 7.2 mph NW11.6 kmh NW 12.7 mph20.4 kmh 29.91 in1012.9 mb - 0.00 in0.0 mm 0.00 in0.0 mm
08:10 AM 49.5°F9.7°C 31.6°F-0.2°C 50% 10.1 mph NW16.3 kmh NW 13.6 mph21.9 kmh 29.91 in1012.9 mb - 0.00 in0.0 mm 0.00 in0.0 mm
08:00 AM 48.7°F9.3°C 30.9°F-0.6°C 50% 8.9 mph NW14.3 kmh NW 10.5 mph16.9 kmh 29.91 in1012.9 mb - 0.00 in0.0 mm 0.00 in0.0 mm
07:50 AM 48.2°F9.0°C 30.4°F-0.9°C 50% 9.7 mph NW15.6 kmh NW 10.9 mph17.5 kmh 29.91 in1012.9 mb - 0.00 in0.0 mm 0.00 in0.0 mm
07:40 AM 47.3°F8.5°C 30.5°F-0.8°C 52% 7.1 mph NW11.4 kmh NW 13.2 mph21.2 kmh 29.88 in1011.9 mb - 0.00 in0.0 mm 0.00 in0.0 mm
07:30 AM 46.9°F8.3°C 30.7°F-0.7°C 53% 8.8 mph NW14.2 kmh NW 10.5 mph16.9 kmh 29.88 in1011.9 mb - 0.00 in0.0 mm 0.00 in0.0 mm
07:20 AM 45.9°F7.7°C 31.1°F-0.5°C 56% 9.0 mph NW14.5 kmh NW 10.5 mph16.9 kmh 29.88 in1011.9 mb - 0.00 in0.0 mm 0.00 in0.0 mm
07:10 AM 45.0°F7.2°C 30.6°F-0.8°C 57% 5.5 mph NW8.9 kmh NW 9.6 mph15.4 kmh 29.88 in1011.9 mb - 0.00 in0.0 mm 0.00 in0.0 mm
07:00 AM 44.4°F6.9°C 30.1°F-1.1°C 57% 4.6 mph N7.4 kmh N 9.2 mph14.8 kmh 29.88 in1011.9 mb - 0.00 in0.0 mm 0.00 in0.0 mm
06:50 AM 44.1°F6.7°C 29.8°F-1.2°C 57% 1.9 mph N3.1 kmh N 3.1 mph5.0 kmh 29.88 in1011.9 mb - 0.00 in0.0 mm 0.00 in0.0 mm
06:40 AM 43.9°F6.6°C 29.6°F-1.3°C 57% 2.4 mph N3.9 kmh N 2.7 mph4.3 kmh 29.88 in1011.9 mb - 0.00 in0.0 mm 0.00 in0.0 mm
06:30 AM 43.7°F6.5°C 29.5°F-1.4°C 57% 5.6 mph N9.0 kmh N 5.8 mph9.3 kmh 29.86 in1011.2 mb - 0.00 in0.0 mm 0.00 in0.0 mm
06:20 AM 43.5°F6.4°C 29.3°F-1.5°C 57% 3.4 mph N5.5 kmh N 4.0 mph6.4 kmh 29.86 in1011.2 mb - 0.00 in0.0 mm 0.00 in0.0 mm
06:10 AM 43.5°F6.4°C 29.3°F-1.5°C 57% 1.5 mph N2.4 kmh N 4.0 mph6.4 kmh 29.86 in1011.2 mb - 0.00 in0.0 mm 0.00 in0.0 mm
06:00 AM 43.5°F6.4°C 29.3°F-1.5°C 57% 3.8 mph N6.1 kmh N 3.6 mph5.8 kmh 29.86 in1011.2 mb - 0.00 in0.0 mm 0.00 in0.0 mm
05:50 AM 43.5°F6.4°C 29.3°F-1.5°C 57% 2.5 mph N4.0 kmh N 4.0 mph6.4 kmh 29.86 in1011.2 mb - 0.00 in0.0 mm 0.00 in0.0 mm
05:40 AM 43.3°F6.3°C 29.1°F-1.6°C 57% 2.7 mph N4.3 kmh N 4.9 mph7.9 kmh 29.86 in1011.2 mb - 0.00 in0.0 mm 0.00 in0.0 mm
05:30 AM 43.3°F6.3°C 29.1°F-1.6°C 57% 4.2 mph N6.8 kmh N 5.8 mph9.3 kmh 29.86 in1011.2 mb - 0.00 in0.0 mm 0.00 in0.0 mm
05:20 AM 43.2°F6.2°C 28.9°F-1.7°C 57% 4.0 mph NW6.4 kmh NW 4.0 mph6.4 kmh 29.86 in1011.2 mb - 0.00 in0.0 mm 0.00 in0.0 mm
05:10 AM 43.2°F6.2°C 28.9°F-1.7°C 57% 2.1 mph NNW3.4 kmh NNW 8.0 mph12.9 kmh 29.86 in1011.2 mb - 0.00 in0.0 mm 0.00 in0.0 mm
05:00 AM 43.0°F6.1°C 28.8°F-1.8°C 57% 1.7 mph NNW2.7 kmh NNW 3.1 mph5.0 kmh 29.86 in1011.2 mb - 0.00 in0.0 mm 0.00 in0.0 mm
04:50 AM 43.0°F6.1°C 28.3°F-2.1°C 56% 1.6 mph N2.6 kmh N -- 29.86 in1011.2 mb - 0.00 in0.0 mm 0.00 in0.0 mm
04:40 AM 42.8°F6.0°C 28.2°F-2.1°C 56% 3.1 mph N5.0 kmh N 3.6 mph5.8 kmh 29.86 in1011.2 mb - 0.00 in0.0 mm 0.00 in0.0 mm
04:30 AM 42.8°F6.0°C 28.2°F-2.1°C 56% 4.5 mph NNW7.2 kmh NNW 5.8 mph9.3 kmh 29.86 in1011.2 mb - 0.00 in0.0 mm 0.00 in0.0 mm
04:20 AM 42.8°F6.0°C 28.2°F-2.1°C 56% 1.5 mph NW2.4 kmh NW 3.1 mph5.0 kmh 29.86 in1011.2 mb - 0.00 in0.0 mm 0.00 in0.0 mm
04:10 AM 42.8°F6.0°C 28.2°F-2.1°C 56% 2.7 mph N4.3 kmh N 3.6 mph5.8 kmh 29.86 in1011.2 mb - 0.00 in0.0 mm 0.00 in0.0 mm
04:00 AM 42.8°F6.0°C 28.2°F-2.1°C 56% Calm Calm 3.1 mph5.0 kmh 29.86 in1011.2 mb - 0.00 in0.0 mm 0.00 in0.0 mm
03:50 AM 42.8°F6.0°C 28.2°F-2.1°C 56% 2.8 mph NW4.5 kmh NW 4.9 mph7.9 kmh 29.86 in1011.2 mb - 0.00 in0.0 mm 0.00 in0.0 mm
03:40 AM 43.0°F6.1°C 28.3°F-2.1°C 56% 3.1 mph NW5.0 kmh NW 3.6 mph5.8 kmh 29.86 in1011.2 mb - 0.00 in0.0 mm 0.00 in0.0 mm
03:30 AM 43.0°F6.1°C 27.9°F-2.3°C 55% 3.6 mph NW5.8 kmh NW 5.4 mph8.7 kmh 29.86 in1011.2 mb - 0.00 in0.0 mm 0.00 in0.0 mm
03:20 AM 43.0°F6.1°C 27.9°F-2.3°C 55% 4.7 mph NNW7.6 kmh NNW 5.4 mph8.7 kmh 29.86 in1011.2 mb - 0.00 in0.0 mm 0.00 in0.0 mm
03:10 AM 43.0°F6.1°C 27.9°F-2.3°C 55% 5.4 mph NW8.7 kmh NW 5.8 mph9.3 kmh 29.86 in1011.2 mb - 0.00 in0.0 mm 0.00 in0.0 mm
03:00 AM 43.0°F6.1°C 27.9°F-2.3°C 55% 3.6 mph NW5.8 kmh NW 5.8 mph9.3 kmh 29.86 in1011.2 mb - 0.00 in0.0 mm 0.00 in0.0 mm
02:50 AM 43.0°F6.1°C 27.9°F-2.3°C 55% 4.5 mph NNW7.2 kmh NNW 6.3 mph10.1 kmh 29.86 in1011.2 mb - 0.00 in0.0 mm 0.00 in0.0 mm
02:40 AM 43.0°F6.1°C 27.9°F-2.3°C 55% 4.0 mph NNW6.4 kmh NNW 6.3 mph10.1 kmh 29.88 in1011.9 mb - 0.00 in0.0 mm 0.00 in0.0 mm
02:30 AM 43.0°F6.1°C 27.9°F-2.3°C 55% 4.6 mph NNW7.4 kmh NNW 4.9 mph7.9 kmh 29.88 in1011.9 mb - 0.00 in0.0 mm 0.00 in0.0 mm
02:20 AM 43.0°F6.1°C 27.5°F-2.5°C 54% 4.5 mph NNW7.2 kmh NNW 7.6 mph12.2 kmh 29.88 in1011.9 mb - 0.00 in0.0 mm 0.00 in0.0 mm
02:10 AM 43.0°F6.1°C 27.5°F-2.5°C 54% 4.6 mph NW7.4 kmh NW 8.3 mph13.4 kmh 29.88 in1011.9 mb - 0.00 in0.0 mm 0.00 in0.0 mm
02:00 AM 43.2°F6.2°C 27.6°F-2.4°C 54% 4.3 mph NNW6.9 kmh NNW 5.4 mph8.7 kmh 29.88 in1011.9 mb - 0.00 in0.0 mm 0.00 in0.0 mm
01:50 AM 43.3°F6.3°C 27.8°F-2.3°C 54% 3.9 mph NW6.3 kmh NW 5.8 mph9.3 kmh 29.88 in1011.9 mb - 0.00 in0.0 mm 0.00 in0.0 mm
01:40 AM 43.3°F6.3°C 27.8°F-2.3°C 54% 4.8 mph NW7.7 kmh NW 6.3 mph10.1 kmh 29.88 in1011.9 mb - 0.00 in0.0 mm 0.00 in0.0 mm
01:30 AM 43.5°F6.4°C 28.0°F-2.2°C 54% 5.4 mph NW8.7 kmh NW 8.3 mph13.4 kmh 29.88 in1011.9 mb - 0.00 in0.0 mm 0.00 in0.0 mm
01:20 AM 43.5°F6.4°C 28.0°F-2.2°C 54% 5.4 mph NNW8.7 kmh NNW 8.3 mph13.4 kmh 29.88 in1011.9 mb - 0.00 in0.0 mm 0.00 in0.0 mm
01:10 AM 43.5°F6.4°C 28.0°F-2.2°C 54% 5.5 mph WNW8.9 kmh WNW 8.7 mph14.0 kmh 29.88 in1011.9 mb - 0.00 in0.0 mm 0.00 in0.0 mm
01:00 AM 43.3°F6.3°C 27.3°F-2.6°C 53% 7.0 mph NNW11.3 kmh NNW 8.0 mph12.9 kmh 29.88 in1011.9 mb - 0.00 in0.0 mm 0.00 in0.0 mm
12:50 AM 43.3°F6.3°C 27.3°F-2.6°C 53% 2.9 mph NW4.7 kmh NW 4.5 mph7.2 kmh 29.88 in1011.9 mb - 0.00 in0.0 mm 0.00 in0.0 mm
12:40 AM 43.3°F6.3°C 27.3°F-2.6°C 53% 6.3 mph NW10.1 kmh NW 8.0 mph12.9 kmh 29.88 in1011.9 mb - 0.00 in0.0 mm 0.00 in0.0 mm
12:30 AM 43.3°F6.3°C 27.3°F-2.6°C 53% 5.4 mph N8.7 kmh N 8.7 mph14.0 kmh 29.88 in1011.9 mb - 0.00 in0.0 mm 0.00 in0.0 mm
12:20 AM 43.3°F6.3°C 27.3°F-2.6°C 53% 3.8 mph NNW6.1 kmh NNW 5.4 mph8.7 kmh 29.88 in1011.9 mb - 0.00 in0.0 mm 0.00 in0.0 mm
12:10 AM 43.3°F6.3°C 26.9°F-2.8°C 52% Calm Calm 3.1 mph5.0 kmh 29.91 in1012.9 mb - 0.00 in0.0 mm 0.00 in0.0 mm
12:00 AM 43.5°F6.4°C 27.0°F-2.8°C 52% 2.8 mph N4.5 kmh N 3.1 mph5.0 kmh 29.91 in1012.9 mb - 0.00 in0.0 mm 0.00 in0.0 mm